Time;durP1;ratioP1;P1;durP2;ratioP2;P2;SDS_P1;SDS_P2;PMS_P1;PMS_P2;Temp;Humidity;BMP_temperature;BMP_pressure;BME280_temperature;BME280_humidity;BME280_pressure;Samples;Min_cycle;Max_cycle;Signal;HPM_P1;HPM_P2
2021/12/12 00:01:32;;;;;;;6.05;4.80;;;12.90;61.80;;;;;;5050096;28;20050;-76
2021/12/12 00:04:11;;;;;;;5.85;4.45;;;12.90;61.80;;;;;;5033806;28;20061;-76
2021/12/12 00:06:39;;;;;;;7.18;4.93;;;12.80;61.90;;;;;;5033494;28;20057;-76
2021/12/12 00:09:08;;;;;;;7.10;5.10;;;13.10;62.10;;;;;;5033809;28;20136;-76
2021/12/12 00:11:35;;;;;;;7.85;5.13;;;;;;;;;;5033355;28;20140;-76
2021/12/12 00:14:05;;;;;;;5.82;5.00;;;12.70;62.00;;;;;;5033369;28;20128;-75
2021/12/12 00:16:31;;;;;;;5.78;4.80;;;12.90;62.30;;;;;;5049655;28;20088;-76
2021/12/12 00:18:59;;;;;;;7.53;5.25;;;;;;;;;;5033045;28;20136;-76
2021/12/12 00:21:27;;;;;;;6.22;4.97;;;12.80;62.50;;;;;;5033405;28;20084;-76
2021/12/12 00:23:54;;;;;;;8.27;5.03;;;;;;;;;;5033374;28;20136;-75
2021/12/12 00:26:21;;;;;;;7.32;4.80;;;12.80;62.30;;;;;;5033274;28;20144;-75
2021/12/12 00:28:48;;;;;;;7.95;5.28;;;;;;;;;;5033475;28;20057;-75
2021/12/12 00:31:18;;;;;;;6.55;5.05;;;12.60;62.20;;;;;;5033317;28;20045;-76
2021/12/12 00:33:47;;;;;;;7.30;4.93;;;12.80;54.20;;;;;;5032936;28;20088;-76
2021/12/12 00:36:17;;;;;;;6.60;5.20;;;;;;;;;;5032695;28;20107;-76
2021/12/12 00:38:44;;;;;;;6.45;5.00;;;12.70;62.40;;;;;;5033225;28;20603;-76
2021/12/12 00:41:12;;;;;;;7.53;5.35;;;12.80;57.00;;;;;;5032543;28;20140;-76
2021/12/12 00:43:42;;;;;;;5.90;4.85;;;12.60;55.70;;;;;;5033192;28;20057;-76
2021/12/12 00:46:10;;;;;;;7.78;5.95;;;12.70;54.30;;;;;;5032786;28;20152;-75
2021/12/12 00:48:38;;;;;;;6.85;5.10;;;12.70;54.30;;;;;;5032515;28;20140;-76
2021/12/12 00:51:06;;;;;;;6.38;5.07;;;13.30;54.70;;;;;;5032602;28;20128;-75
2021/12/12 00:53:33;;;;;;;7.22;5.35;;;12.70;54.30;;;;;;5049609;28;20136;-75
2021/12/12 00:56:00;;;;;;;8.98;5.72;;;12.60;62.50;;;;;;5032479;28;20491;-75
2021/12/12 00:58:27;;;;;;;6.82;5.25;;;12.80;55.40;;;;;;5049448;28;20084;-75
2021/12/12 01:00:57;;;;;;;7.57;5.50;;;12.80;62.70;;;;;;5033984;28;20088;-76
2021/12/12 01:03:25;;;;;;;7.32;5.47;;;12.60;61.00;;;;;;5032264;28;20050;-75
2021/12/12 01:05:54;;;;;;;7.30;5.68;;;12.70;54.40;;;;;;5032108;28;20406;-76
2021/12/12 01:08:21;;;;;;;8.07;5.93;;;12.60;62.80;;;;;;5032381;28;20082;-76
2021/12/12 01:10:49;;;;;;;7.82;5.45;;;12.70;60.70;;;;;;5032114;28;20136;-75
2021/12/12 01:13:16;;;;;;;8.85;5.72;;;12.80;62.60;;;;;;5032633;28;20454;-76
2021/12/12 01:15:48;;;;;;;9.48;6.15;;;12.70;54.40;;;;;;5048720;28;20136;-74
2021/12/12 01:18:17;;;;;;;7.00;5.43;;;12.50;62.80;;;;;;5032318;28;20058;-75
2021/12/12 01:20:46;;;;;;;7.63;5.70;;;12.70;57.30;;;;;;5031915;28;20137;-75
2021/12/12 01:23:16;;;;;;;6.80;5.40;;;12.60;54.40;;;;;;5031986;28;20509;-76
2021/12/12 01:25:45;;;;;;;8.45;5.55;;;13.00;63.00;;;;;;5031970;28;20092;-76
2021/12/12 01:28:12;;;;;;;7.15;5.53;;;;;;;;;;5031798;28;20060;-75
2021/12/12 01:30:39;;;;;;;6.82;5.18;;;12.60;62.60;;;;;;5032084;28;20140;-75
2021/12/12 01:33:09;;;;;;;6.75;5.07;;;;;;;;;;5031818;28;20103;-76
2021/12/12 01:35:36;;;;;;;8.13;5.97;;;;;;;;;;5031614;28;20063;-76
2021/12/12 01:40:50;;;;;;;8.32;5.60;;;12.60;54.40;;;;;;5030291;28;20115;-75
2021/12/12 01:43:19;;;;;;;8.98;5.80;;;12.60;61.80;;;;;;5031793;28;20087;-75
2021/12/12 01:45:47;;;;;;;8.27;5.85;;;12.60;54.40;;;;;;5031474;28;20103;-75
2021/12/12 01:48:19;;;;;;;8.75;5.70;;;12.80;56.00;;;;;;5031427;28;20140;-75
2021/12/12 01:50:48;;;;;;;9.32;5.60;;;13.10;56.40;;;;;;5031580;28;20057;-75
2021/12/12 01:53:16;;;;;;;8.88;6.00;;;12.70;56.30;;;;;;5031468;28;20546;-75
2021/12/12 01:55:46;;;;;;;6.85;5.38;;;12.50;62.60;;;;;;5031200;28;20092;-76
2021/12/12 01:58:15;;;;;;;8.05;5.25;;;12.60;54.40;;;;;;5031412;28;20136;-75
2021/12/12 02:00:45;;;;;;;7.10;4.93;;;12.70;59.90;;;;;;5031672;28;20136;-75
2021/12/12 02:03:13;;;;;;;7.10;5.25;;;12.70;62.90;;;;;;5031281;28;20052;-76
2021/12/12 02:05:39;;;;;;;7.28;5.45;;;12.60;62.60;;;;;;5031244;28;20059;-76
2021/12/12 02:08:08;;;;;;;6.95;5.55;;;12.80;62.70;;;;;;5031429;28;20136;-76
2021/12/12 02:10:36;;;;;;;6.57;5.03;;;12.70;54.40;;;;;;5031559;28;20527;-75
2021/12/12 02:13:03;;;;;;;7.85;5.75;;;12.60;55.40;;;;;;5047020;28;20132;-75
2021/12/12 02:15:35;;;;;;;9.70;5.50;;;12.30;62.60;;;;;;5030785;28;20053;-75
2021/12/12 02:18:04;;;;;;;7.90;5.00;;;12.70;54.30;;;;;;5031174;28;20099;-76
2021/12/12 02:20:37;;;;;;;6.47;4.88;;;13.00;54.50;;;;;;5030882;28;20049;-75
2021/12/12 02:23:13;;;;;;;6.18;4.85;;;12.70;54.30;;;;;;5031007;28;20407;-76
2021/12/12 02:36:40;;;;;;;6.22;4.20;;;12.30;62.30;;;;;;5030938;28;20041;-76
2021/12/12 02:39:15;;;;;;;6.03;4.15;;;12.80;54.20;;;;;;5047667;28;20465;-75
2021/12/12 02:41:43;;;;;;;6.18;4.40;;;12.90;61.00;;;;;;5031304;28;20388;-76
2021/12/12 02:44:10;;;;;;;6.82;4.40;;;;;;;;;;5031244;28;20128;-75
2021/12/12 02:46:37;;;;;;;6.47;4.55;;;12.70;62.50;;;;;;5031409;28;20065;-76
2021/12/12 02:49:11;;;;;;;5.07;4.00;;;12.90;58.60;;;;;;5030359;28;20056;-75
2021/12/12 02:51:39;;;;;;;5.53;4.25;;;13.00;54.70;;;;;;5031420;28;20091;-75
2021/12/12 02:54:06;;;;;;;6.03;4.20;;;;;;;;;;5031431;28;20148;-76
2021/12/12 02:56:37;;;;;;;6.30;4.13;;;13.00;62.30;;;;;;5047830;28;20232;-74
2021/12/12 02:59:06;;;;;;;6.32;3.97;;;12.60;62.20;;;;;;5031262;28;20107;-76
2021/12/12 03:01:34;;;;;;;7.43;4.20;;;13.10;62.20;;;;;;5031439;28;20387;-76
2021/12/12 03:04:01;;;;;;;7.10;4.38;;;;;;;;;;5030860;28;20089;-76
2021/12/12 03:06:29;;;;;;;6.47;4.38;;;13.00;54.00;;;;;;5047785;28;20529;-75
2021/12/12 03:08:59;;;;;;;5.13;3.92;;;13.10;54.00;;;;;;5030736;28;20148;-75
2021/12/12 03:11:27;;;;;;;6.03;4.38;;;;;;;;;;5030885;28;20080;-75
2021/12/12 03:13:55;;;;;;;5.32;3.67;;;13.10;53.90;;;;;;5047661;28;20446;-75
2021/12/12 03:16:23;;;;;;;7.10;4.25;;;;;;;;;;5031006;28;20059;-75
2021/12/12 03:18:49;;;;;;;5.68;4.15;;;13.20;62.10;;;;;;5047581;28;20059;-76
2021/12/12 03:21:18;;;;;;;6.38;3.90;;;12.80;62.00;;;;;;5030687;28;20144;-76
2021/12/12 03:23:47;;;;;;;6.88;3.80;;;12.80;54.20;;;;;;5031056;28;20103;-75
2021/12/12 03:26:14;;;;;;;5.40;3.40;;;13.30;62.10;;;;;;5030832;28;20498;-76
2021/12/12 03:28:42;;;;;;;4.93;3.58;;;13.20;53.90;;;;;;5030716;28;20502;-75
2021/12/12 03:31:13;;;;;;;5.00;3.60;;;12.70;55.00;;;;;;5048044;28;20136;-75
2021/12/12 03:33:40;;;;;;;5.55;3.75;;;13.00;61.70;;;;;;5034302;28;20551;-76
2021/12/12 03:36:08;;;;;;;5.40;3.47;;;13.10;57.30;;;;;;5034702;28;20521;-76
2021/12/12 03:38:36;;;;;;;4.70;3.72;;;13.30;57.80;;;;;;5050920;28;20133;-76
2021/12/12 03:41:04;;;;;;;5.00;3.72;;;13.30;58.60;;;;;;5034202;28;20077;-76
2021/12/12 03:43:31;;;;;;;5.88;3.60;;;;;;;;;;5051305;28;20136;-75
2021/12/12 03:45:58;;;;;;;5.82;3.42;;;13.20;61.70;;;;;;5034484;28;20163;-76
2021/12/12 03:48:28;;;;;;;5.43;3.60;;;13.30;61.80;;;;;;5051157;28;20307;-76
2021/12/12 03:50:57;;;;;;;4.57;3.28;;;15.80;55.90;;;;;;5034464;28;20506;-76
2021/12/12 03:56:16;;;;;;;5.00;3.25;;;13.30;57.70;;;;;;5066008;28;20406;-76
2021/12/12 03:58:43;;;;;;;4.10;3.10;;;;;;;;;;5034327;28;20088;-76
2021/12/12 04:01:11;;;;;;;5.07;3.17;;;13.30;53.80;;;;;;5050618;28;20128;-75
2021/12/12 04:03:40;;;;;;;5.47;3.13;;;13.20;60.60;;;;;;5033920;28;20128;-76
2021/12/12 04:06:08;;;;;;;5.53;3.35;;;13.40;61.80;;;;;;5034040;28;20136;-75
2021/12/12 04:08:36;;;;;;;5.22;3.30;;;13.40;61.80;;;;;;5033605;28;20141;-76
2021/12/12 04:11:03;;;;;;;3.95;2.90;;;;;;;;;;5033604;28;20570;-76
2021/12/12 04:13:30;;;;;;;5.50;3.20;;;13.40;61.60;;;;;;5050205;28;20410;-76
2021/12/12 04:15:57;;;;;;;5.30;3.10;;;12.80;58.00;;;;;;5033747;28;20145;-76
2021/12/12 04:18:24;;;;;;;4.07;2.85;;;;;;;;;;5033659;28;20084;-75
2021/12/12 04:20:53;;;;;;;4.93;2.83;;;13.30;61.90;;;;;;5050275;28;20132;-75
2021/12/12 04:23:21;;;;;;;3.78;2.80;;;13.30;61.70;;;;;;5033112;28;20410;-76
2021/12/12 04:25:47;;;;;;;7.82;3.40;;;13.40;61.90;;;;;;5033052;28;20128;-76
2021/12/12 04:28:14;;;;;;;3.78;3.05;;;;;;;;;;5033380;28;20132;-74
2021/12/12 04:30:41;;;;;;;3.83;2.95;;;13.50;61.80;;;;;;5050327;28;20136;-76
2021/12/12 04:33:08;;;;;;;4.20;2.85;;;;;;;;;;5034286;28;20133;-76
2021/12/12 04:35:35;;;;;;;4.65;2.88;;;13.40;61.70;;;;;;5050050;28;20140;-76
2021/12/12 04:38:04;;;;;;;4.15;2.83;;;13.40;53.70;;;;;;5033354;28;20161;-76
2021/12/12 04:40:33;;;;;;;4.78;2.90;;;13.40;53.70;;;;;;5033229;28;20091;-75
2021/12/12 04:43:00;;;;;;;5.32;2.88;;;13.50;61.60;;;;;;5032677;28;20136;-76
2021/12/12 04:45:35;;;;;;;3.55;2.80;;;13.30;54.50;;;;;;5032348;28;20139;-75
2021/12/12 04:50:53;;;;;;;3.95;2.65;;;13.50;60.50;;;;;;5033778;28;20045;-75
2021/12/12 04:53:25;;;;;;;4.32;2.58;;;13.20;54.40;;;;;;5032660;28;20053;-75
2021/12/12 04:55:57;;;;;;;4.05;2.70;;;13.40;61.70;;;;;;5032175;28;20088;-76
2021/12/12 04:58:27;;;;;;;3.95;2.85;;;13.40;53.70;;;;;;5032454;28;20056;-76
2021/12/12 05:00:57;;;;;;;4.00;2.60;;;13.40;56.50;;;;;;5032603;28;20087;-76
2021/12/12 05:03:27;;;;;;;3.40;2.50;;;13.20;61.30;;;;;;5032191;28;20135;-76
2021/12/12 05:05:55;;;;;;;3.90;2.67;;;13.50;61.70;;;;;;5032501;28;20136;-76
2021/12/12 05:08:27;;;;;;;4.82;2.55;;;13.40;53.70;;;;;;5032021;28;20128;-75
2021/12/12 05:10:56;;;;;;;3.17;2.50;;;13.60;55.70;;;;;;5032435;28;20139;-76
2021/12/12 05:13:24;;;;;;;4.28;2.65;;;13.10;61.60;;;;;;5031570;28;20128;-75
2021/12/12 05:15:53;;;;;;;3.92;2.58;;;13.50;53.80;;;;;;5032034;28;20061;-76
2021/12/12 05:18:26;;;;;;;3.55;2.53;;;13.10;59.20;;;;;;5032284;28;20399;-75
2021/12/12 05:20:55;;;;;;;3.42;2.50;;;13.40;54.80;;;;;;5031909;28;20449;-76
2021/12/12 05:23:23;;;;;;;3.40;2.30;;;13.30;54.00;;;;;;5031924;28;20128;-75
2021/12/12 05:25:51;;;;;;;4.03;2.35;;;13.70;56.30;;;;;;5031650;28;20096;-75
2021/12/12 05:28:19;;;;;;;2.85;2.00;;;13.70;61.70;;;;;;5033072;28;20145;-76
2021/12/12 05:30:46;;;;;;;3.15;2.20;;;13.50;57.60;;;;;;5031964;28;20081;-75
2021/12/12 05:33:14;;;;;;;3.92;2.15;;;13.70;61.40;;;;;;5031756;28;20124;-75
2021/12/12 05:35:41;;;;;;;4.72;2.17;;;13.40;61.50;;;;;;5032457;28;20056;-75
2021/12/12 05:38:09;;;;;;;3.00;2.25;;;;;;;;;;5031240;28;20136;-75
2021/12/12 05:40:38;;;;;;;4.20;2.33;;;13.70;61.90;;;;;;5048314;28;20144;-76
2021/12/12 05:43:05;;;;;;;3.33;2.25;;;13.50;61.80;;;;;;5031890;28;20050;-76
2021/12/12 05:45:33;;;;;;;2.97;2.17;;;13.70;55.80;;;;;;5031442;28;20136;-75
2021/12/12 05:48:00;;;;;;;3.13;2.22;;;;;;;;;;5031808;28;20136;-76
2021/12/12 05:50:28;;;;;;;4.15;2.67;;;;;;;;;;5047775;28;20148;-75
2021/12/12 05:52:55;;;;;;;3.22;2.15;;;13.30;61.30;;;;;;5047709;28;20144;-76
2021/12/12 05:55:23;;;;;;;2.35;1.85;;;13.60;53.80;;;;;;5030695;28;20131;-75
2021/12/12 05:57:54;;;;;;;3.33;2.13;;;13.50;61.50;;;;;;5031336;28;20573;-75
2021/12/12 06:00:23;;;;;;;3.20;2.15;;;13.70;61.60;;;;;;5031462;28;20064;-76
2021/12/12 06:02:50;;;;;;;3.38;2.20;;;;;;;;;;5031268;28;20558;-76
2021/12/12 06:05:17;;;;;;;2.40;2.00;;;;;;;;;;5047664;28;20091;-75
2021/12/12 06:07:44;;;;;;;3.17;2.20;;;13.80;61.80;;;;;;5047668;28;20132;-76
2021/12/12 06:10:13;;;;;;;3.08;2.17;;;13.50;61.00;;;;;;5030964;28;20136;-75
2021/12/12 06:12:40;;;;;;;2.70;1.80;;;13.70;61.60;;;;;;5030578;28;20129;-76
2021/12/12 06:15:10;;;;;;;4.05;2.13;;;13.70;53.90;;;;;;5031253;28;20518;-75
2021/12/12 06:17:37;;;;;;;3.45;2.00;;;;;;;;;;5031110;28;20562;-75
2021/12/12 06:20:06;;;;;;;2.67;2.00;;;13.70;61.50;;;;;;5032207;28;20128;-76
2021/12/12 06:22:32;;;;;;;2.67;1.73;;;13.50;61.50;;;;;;5031001;28;20144;-75
2021/12/12 06:24:59;;;;;;;2.83;2.05;;;;;;;;;;5031473;28;20132;-75
2021/12/12 06:27:27;;;;;;;3.83;1.92;;;13.70;61.50;;;;;;5047451;28;20128;-76
2021/12/12 06:29:54;;;;;;;2.80;1.75;;;13.80;54.00;;;;;;5030924;28;20055;-75
2021/12/12 06:32:22;;;;;;;2.67;1.90;;;13.70;61.80;;;;;;5030446;28;20068;-76
2021/12/12 06:34:49;;;;;;;2.75;1.85;;;13.80;61.60;;;;;;5031095;28;20128;-76
2021/12/12 06:37:16;;;;;;;2.10;1.67;;;13.50;61.50;;;;;;5030524;28;20132;-76
2021/12/12 06:39:43;;;;;;;2.13;1.67;;;13.80;61.60;;;;;;5030875;28;20088;-76
2021/12/12 06:42:10;;;;;;;2.78;1.70;;;;;;;;;;5030017;28;20103;-76
2021/12/12 06:44:38;;;;;;;2.63;1.70;;;13.80;61.50;;;;;;5031065;28;20464;-75
2021/12/12 06:47:06;;;;;;;2.45;1.80;;;13.90;61.60;;;;;;5047120;28;20053;-75
2021/12/12 06:49:35;;;;;;;1.98;1.70;;;13.90;61.80;;;;;;5030710;28;20064;-75
2021/12/12 06:52:04;;;;;;;2.35;1.67;;;;;;;;;;5030184;28;20139;-76
2021/12/12 06:54:31;;;;;;;2.60;1.80;;;13.80;60.70;;;;;;5030458;28;20050;-76
2021/12/12 06:56:59;;;;;;;2.55;1.60;;;13.80;61.80;;;;;;5030220;28;20554;-76
2021/12/12 06:59:28;;;;;;;2.40;1.60;;;13.80;54.00;;;;;;5030753;28;20136;-75
2021/12/12 07:01:55;;;;;;;2.38;1.70;;;13.90;61.50;;;;;;5030594;28;20049;-75
2021/12/12 07:04:22;;;;;;;2.47;1.70;;;;;;;;;;5030693;28;20132;-75
2021/12/12 07:06:53;;;;;;;2.08;1.52;;;13.80;54.00;;;;;;5033748;28;20140;-75
2021/12/12 07:09:20;;;;;;;2.88;1.80;;;13.80;61.60;;;;;;5034190;28;20577;-75
2021/12/12 07:11:47;;;;;;;1.85;1.40;;;13.80;58.70;;;;;;5034815;28;20084;-75
2021/12/12 07:14:14;;;;;;;1.80;1.33;;;13.90;61.90;;;;;;5034440;28;20136;-75
2021/12/12 07:16:41;;;;;;;2.67;1.60;;;13.80;61.60;;;;;;5034311;28;20566;-75
2021/12/12 07:19:08;;;;;;;2.08;1.48;;;13.90;61.90;;;;;;5034495;28;20514;-76
2021/12/12 07:21:35;;;;;;;1.63;1.40;;;;;;;;;;5033805;28;20151;-75
2021/12/12 07:24:05;;;;;;;2.95;1.30;;;13.80;61.60;;;;;;5034368;28;20128;-76
2021/12/12 07:26:32;;;;;;;3.10;1.38;;;;;;;;;;5034204;28;20136;-75
2021/12/12 07:29:00;;;;;;;2.03;1.55;;;;;;;;;;5034177;28;20049;-75
2021/12/12 07:31:28;;;;;;;2.13;1.38;;;13.90;61.60;;;;;;5051043;28;20103;-75
2021/12/12 07:33:56;;;;;;;2.10;1.50;;;13.70;61.60;;;;;;5033682;28;20121;-75
2021/12/12 07:36:23;;;;;;;2.53;1.67;;;13.80;56.20;;;;;;5050652;28;20132;-74
2021/12/12 07:38:54;;;;;;;1.90;1.30;;;14.00;62.00;;;;;;5034288;28;20537;-74
2021/12/12 07:41:23;;;;;;;1.77;1.40;;;14.80;54.60;;;;;;5034220;28;20522;-74
2021/12/12 07:43:50;;;;;;;1.95;1.40;;;13.80;61.90;;;;;;5033891;28;20140;-74
2021/12/12 07:46:17;;;;;;;2.15;1.48;;;14.00;62.00;;;;;;5032997;28;20049;-74
2021/12/12 07:48:44;;;;;;;5.75;1.50;;;14.10;54.20;;;;;;5038236;28;20140;-74
2021/12/12 07:51:11;;;;;;;2.55;1.25;;;14.00;61.70;;;;;;5037132;28;20132;-74
2021/12/12 07:53:38;;;;;;;1.55;1.20;;;;;;;;;;5032153;28;20049;-74
2021/12/12 07:56:05;;;;;;;1.98;1.42;;;13.90;61.80;;;;;;5032531;28;20055;-74
2021/12/12 07:58:33;;;;;;;1.80;1.33;;;13.90;54.00;;;;;;5032749;28;20133;-74
2021/12/12 08:01:00;;;;;;;1.38;1.10;;;;;;;;;;5033162;28;20136;-74
2021/12/12 08:03:28;;;;;;;1.92;1.27;;;14.10;61.80;;;;;;5030356;28;20041;-74
2021/12/12 08:05:56;;;;;;;1.73;1.25;;;13.90;61.70;;;;;;5032985;28;20084;-74
2021/12/12 08:08:22;;;;;;;1.60;1.20;;;14.10;61.50;;;;;;5033087;28;20553;-74
2021/12/12 08:10:50;;;;;;;2.33;1.20;;;;;;;;;;5033101;28;20446;-74
2021/12/12 08:13:17;;;;;;;1.80;1.30;;;14.00;61.40;;;;;;5034617;28;20049;-74
2021/12/12 08:15:46;;;;;;;1.45;1.20;;;14.10;61.40;;;;;;5041779;28;20128;-74
2021/12/12 08:18:15;;;;;;;1.15;1.05;;;14.00;58.20;;;;;;5037307;28;20494;-74
2021/12/12 08:20:44;;;;;;;4.30;1.13;;;13.60;61.40;;;;;;5041012;28;20128;-74
2021/12/12 08:23:11;;;;;;;1.63;1.30;;;14.00;61.60;;;;;;5039248;28;20489;-74
2021/12/12 08:25:38;;;;;;;1.23;1.10;;;14.10;61.70;;;;;;5059437;28;20136;-73
2021/12/12 08:28:05;;;;;;;1.65;1.30;;;14.00;59.80;;;;;;5042702;28;20140;-73
2021/12/12 08:30:32;;;;;;;1.92;1.20;;;;;;;;;;5032386;28;20136;-74
2021/12/12 08:33:01;;;;;;;1.25;1.13;;;14.10;61.60;;;;;;5057383;28;20081;-74
2021/12/12 08:35:29;;;;;;;2.10;1.15;;;13.60;61.30;;;;;;5043993;28;20084;-74
2021/12/12 08:37:58;;;;;;;1.38;1.10;;;15.10;61.80;;;;;;5040563;28;20407;-74
2021/12/12 08:40:26;;;;;;;1.65;1.30;;;14.60;54.10;;;;;;5038255;28;20557;-74
2021/12/12 08:42:53;;;;;;;3.58;1.30;;;13.90;60.40;;;;;;5041559;28;20096;-75
2021/12/12 08:45:22;;;;;;;1.40;1.10;;;14.10;61.40;;;;;;5040397;28;20098;-75
2021/12/12 08:47:49;;;;;;;1.13;1.00;;;;;;;;;;5037816;28;20077;-75
2021/12/12 08:50:24;;;;;;;1.33;1.10;;;14.20;61.50;;;;;;5057692;28;20087;-75
2021/12/12 08:52:51;;;;;;;;;;;14.20;54.30;;;;;;5041894;28;20132;-75
2021/12/12 08:55:20;;;;;;;1.40;1.10;;;14.20;61.50;;;;;;5042389;28;20016;-75
2021/12/12 08:57:57;;;;;;;2.22;1.20;;;;;;;;;;5032460;28;20099;-74
2021/12/12 09:00:24;;;;;;;1.00;0.90;;;14.30;61.60;;;;;;5044597;28;20082;-75
2021/12/12 09:02:51;;;;;;;1.40;1.10;;;13.90;61.20;;;;;;5035605;28;20045;-75
2021/12/12 09:05:21;;;;;;;1.85;1.65;;;14.20;53.70;;;;;;5040604;28;20154;-75
2021/12/12 09:07:49;;;;;;;1.20;1.10;;;14.10;61.40;;;;;;5034773;28;20517;-75
2021/12/12 09:10:20;;;;;;;1.30;1.13;;;14.20;59.90;;;;;;5047286;28;20084;-75
2021/12/12 09:12:50;;;;;;;1.38;0.93;;;14.30;61.30;;;;;;5038491;28;20068;-75
2021/12/12 09:15:20;;;;;;;1.10;1.00;;;14.20;53.70;;;;;;5041000;28;20525;-75
2021/12/12 09:17:48;;;;;;;1.17;1.00;;;13.90;61.00;;;;;;5043707;28;20123;-75
2021/12/12 09:20:17;;;;;;;1.08;0.98;;;14.20;53.70;;;;;;5061055;28;20557;-75
2021/12/12 09:22:55;;;;;;;1.45;1.10;;;14.30;53.70;;;;;;5049882;28;20072;-75
2021/12/12 09:25:31;;;;;;;1.25;0.95;;;14.30;55.10;;;;;;5049545;28;20045;-75
2021/12/12 09:28:03;;;;;;;2.25;1.17;;;14.40;58.90;;;;;;5052553;28;20520;-75
2021/12/12 09:30:30;;;;;;;1.40;1.00;;;14.20;59.10;;;;;;5040802;28;20581;-75
2021/12/12 09:32:59;;;;;;;1.27;1.00;;;14.30;53.60;;;;;;5031990;28;20132;-75
2021/12/12 09:35:29;;;;;;;1.00;0.90;;;14.10;54.20;;;;;;5028733;28;20128;-75
2021/12/12 09:37:59;;;;;;;1.05;1.00;;;14.30;61.20;;;;;;5030995;28;20124;-75
2021/12/12 09:40:36;;;;;;;0.90;0.90;;;13.80;60.90;;;;;;5031632;28;20124;-75
2021/12/12 09:43:17;;;;;;;0.90;0.90;;;14.40;58.30;;;;;;5032049;28;20140;-75
2021/12/12 09:46:07;;;;;;;1.00;0.90;;;14.00;61.40;;;;;;5041077;28;20048;-75
2021/12/12 09:52:14;;;;;;;2.17;1.00;;;15.20;61.80;;;;;;5029936;28;20469;-75
2021/12/12 09:54:47;;;;;;;1.63;1.20;;;13.70;61.00;;;;;;5025067;28;20474;-75
2021/12/12 09:57:15;;;;;;;1.17;1.00;;;13.60;60.90;;;;;;5047454;28;20426;-75
2021/12/12 09:59:54;;;;;;;1.98;1.00;;;14.20;61.50;;;;;;5031553;28;20088;-75
2021/12/12 10:02:25;;;;;;;1.40;1.00;;;14.30;56.70;;;;;;5046521;28;20057;-75
2021/12/12 10:05:14;;;;;;;1.90;1.05;;;14.40;61.50;;;;;;5062350;28;20056;-75
2021/12/12 10:07:47;;;;;;;1.95;1.20;;;14.40;61.70;;;;;;5032944;28;20128;-75
2021/12/12 10:10:20;;;;;;;3.05;1.10;;;14.40;61.60;;;;;;5034402;28;20140;-75
2021/12/12 10:12:49;;;;;;;2.13;1.05;;;14.10;61.60;;;;;;5045989;28;20501;-75
2021/12/12 10:15:19;;;;;;;1.25;1.00;;;14.30;61.80;;;;;;5044568;28;20055;-75
2021/12/12 10:17:48;;;;;;;2.05;1.30;;;14.40;54.20;;;;;;5035016;28;20075;-75
2021/12/12 10:20:20;;;;;;;1.77;1.10;;;14.50;61.80;;;;;;5041069;28;20128;-75
2021/12/12 10:23:00;;;;;;;1.50;1.20;;;14.50;61.90;;;;;;5043217;28;20140;-75
2021/12/12 10:25:31;;;;;;;1.25;1.10;;;14.00;61.70;;;;;;5047631;28;20083;-75
2021/12/12 10:28:00;;;;;;;1.20;1.00;;;14.90;56.10;;;;;;5038538;28;20427;-75
2021/12/12 10:30:28;;;;;;;2.40;1.02;;;13.90;61.30;;;;;;5039125;28;20077;-73
2021/12/12 10:32:59;;;;;;;1.65;1.00;;;14.50;61.90;;;;;;5040908;28;20132;-73
2021/12/12 10:35:28;;;;;;;2.05;1.10;;;14.50;54.30;;;;;;5038924;28;20500;-73
2021/12/12 10:37:58;;;;;;;1.35;1.00;;;14.00;61.60;;;;;;5038991;28;20128;-73
2021/12/12 10:40:28;;;;;;;2.22;1.00;;;13.80;61.30;;;;;;5041429;28;20059;-73
2021/12/12 10:42:58;;;;;;;1.63;1.00;;;14.40;54.20;;;;;;5041626;28;20465;-73
2021/12/12 10:45:28;;;;;;;1.55;1.05;;;14.40;61.80;;;;;;5042012;28;20136;-73
2021/12/12 10:47:57;;;;;;;1.85;0.90;;;13.90;61.00;;;;;;5040342;28;20527;-73
2021/12/12 10:50:28;;;;;;;1.40;1.08;;;14.20;61.70;;;;;;5040738;28;20048;-73
2021/12/12 10:52:55;;;;;;;1.15;0.90;;;;;;;;;;5039368;28;20120;-72
2021/12/12 10:55:24;;;;;;;2.90;1.05;;;14.50;54.30;;;;;;5036193;28;20057;-73
2021/12/12 10:57:57;;;;;;;0.93;0.90;;;14.70;57.60;;;;;;5042144;28;20557;-73
2021/12/12 11:00:26;;;;;;;1.52;1.00;;;15.10;62.20;;;;;;5042684;28;20092;-73
2021/12/12 11:03:03;;;;;;;1.05;0.88;;;14.50;54.30;;;;;;5043147;28;20075;-74
2021/12/12 11:05:32;;;;;;;2.25;1.30;;;14.60;62.10;;;;;;5036576;28;20557;-72
2021/12/12 11:08:04;;;;;;;2.03;1.20;;;14.50;54.90;;;;;;5035039;28;20076;-72
2021/12/12 11:10:33;;;;;;;3.95;1.40;;;13.90;54.70;;;;;;5046888;28;20473;-75
2021/12/12 11:13:03;;;;;;;2.88;1.40;;;14.50;62.60;;;;;;5038604;28;20133;-75
2021/12/12 11:15:35;;;;;;;2.22;1.35;;;14.50;62.70;;;;;;5026355;28;20383;-75
2021/12/12 11:18:05;;;;;;;5.35;1.38;;;14.90;62.70;;;;;;5039974;28;20129;-75
2021/12/12 11:20:35;;;;;;;3.10;1.42;;;14.80;62.70;;;;;;5042148;28;20458;-75
2021/12/12 11:23:05;;;;;;;2.17;1.30;;;14.70;62.50;;;;;;5034412;28;20141;-75
2021/12/12 11:25:35;;;;;;;3.33;1.35;;;14.70;62.80;;;;;;5042043;28;20136;-76
2021/12/12 11:28:05;;;;;;;2.95;1.10;;;14.80;62.90;;;;;;5042663;28;20516;-75
2021/12/12 11:30:35;;;;;;;2.00;1.08;;;14.30;62.70;;;;;;5043179;28;20131;-76
2021/12/12 11:33:02;;;;;;;5.03;1.30;;;14.80;63.00;;;;;;5042651;28;20064;-76
2021/12/12 11:35:29;;;;;;;1.23;1.00;;;;;;;;;;5036251;28;20121;-75
2021/12/12 11:37:58;;;;;;;2.75;1.17;;;14.10;62.50;;;;;;5042507;28;20048;-76
2021/12/12 11:40:29;;;;;;;1.27;1.08;;;14.90;62.70;;;;;;5039561;28;20046;-76
2021/12/12 11:42:59;;;;;;;1.30;1.10;;;14.40;62.50;;;;;;5045845;28;20474;-75
2021/12/12 11:45:30;;;;;;;2.92;1.10;;;15.10;62.70;;;;;;5038724;28;20134;-75
2021/12/12 11:48:02;;;;;;;2.90;1.10;;;15.00;62.80;;;;;;5046314;28;20497;-75
2021/12/12 11:50:33;;;;;;;2.28;1.00;;;14.00;62.50;;;;;;5033402;28;20046;-76
2021/12/12 11:53:02;;;;;;;1.50;1.10;;;15.00;62.70;;;;;;5033752;28;20060;-75
2021/12/12 11:55:34;;;;;;;1.58;1.17;;;15.00;62.90;;;;;;5036612;28;20069;-76
2021/12/12 11:58:03;;;;;;;1.77;1.10;;;15.00;62.90;;;;;;5038998;28;20268;-76
2021/12/12 12:00:34;;;;;;;1.50;1.00;;;15.00;60.60;;;;;;5035691;28;20080;-75
2021/12/12 12:03:13;;;;;;;1.77;1.20;;;15.10;63.20;;;;;;5042639;28;20092;-76
2021/12/12 12:05:47;;;;;;;1.05;0.90;;;15.00;55.80;;;;;;5035615;28;20440;-74
2021/12/12 12:08:18;;;;;;;1.35;0.95;;;15.00;62.80;;;;;;5075175;28;20081;-76
2021/12/12 12:10:52;;;;;;;2.40;1.10;;;15.00;62.80;;;;;;5045775;28;20136;-76
2021/12/12 12:13:33;;;;;;;1.30;1.00;;;14.90;59.20;;;;;;5043297;28;20413;-75
2021/12/12 12:16:04;;;;;;;1.67;0.95;;;15.00;55.80;;;;;;5044504;28;20136;-76
2021/12/12 12:18:37;;;;;;;1.40;1.00;;;15.00;55.80;;;;;;5034663;28;20449;-74
2021/12/12 12:21:10;;;;;;;1.88;1.10;;;15.10;62.80;;;;;;5038147;28;20482;-76
2021/12/12 12:23:59;;;;;;;2.10;1.10;;;15.00;55.80;;;;;;5037573;28;20064;-75
2021/12/12 12:29:43;;;;;;;3.95;1.33;;;15.00;63.20;;;;;;5043855;28;20041;-76
2021/12/12 12:32:55;;;;;;;4.15;1.88;;;15.30;63.10;;;;;;5036052;28;20525;-76
2021/12/12 12:35:59;;;;;;;2.05;1.17;;;15.00;56.50;;;;;;5039172;28;20041;-75
2021/12/12 12:39:03;;;;;;;2.35;1.10;;;14.50;62.90;;;;;;5041411;28;20136;-76
2021/12/12 12:42:21;;;;;;;2.17;1.20;;;14.90;62.90;;;;;;5029272;28;20136;-76
2021/12/12 12:45:36;;;;;;;1.70;1.10;;;15.10;63.30;;;;;;5037379;28;20141;-76
2021/12/12 12:48:41;;;;;;;3.67;1.33;;;15.00;63.00;;;;;;5038089;28;20135;-76
2021/12/12 12:51:41;;;;;;;2.13;0.98;;;14.20;62.80;;;;;;5039445;28;20139;-76
2021/12/12 12:54:17;;;;;;;1.10;1.00;;;15.00;56.50;;;;;;5043928;28;20045;-76
2021/12/12 12:57:10;;;;;;;1.25;0.95;;;15.30;56.20;;;;;;5043997;28;20052;-76
2021/12/12 12:59:55;;;;;;;3.78;1.00;;;15.00;63.10;;;;;;5035443;28;20051;-73
2021/12/12 13:02:24;;;;;;;;;;;14.90;56.50;;;;;;5035396;28;20114;-75
2021/12/12 13:05:15;;;;;;;2.15;1.20;;;14.80;63.20;;;;;;5044988;28;19999;-75
2021/12/12 13:08:12;;;;;;;1.17;0.98;;;15.70;57.30;;;;;;5033597;28;20064;-74
2021/12/12 13:10:39;;;;;;;3.15;1.10;;;14.90;63.20;;;;;;5034383;28;20067;-75
2021/12/12 13:13:09;;;;;;;1.13;0.93;;;14.00;62.60;;;;;;5039751;28;20056;-75
2021/12/12 13:15:47;;;;;;;1.42;1.30;;;15.10;63.20;;;;;;5034241;28;20127;-75
2021/12/12 13:18:31;;;;;;;2.13;1.20;;;14.90;56.10;;;;;;5040459;28;20049;-75
2021/12/12 13:21:08;;;;;;;1.10;1.00;;;15.00;63.30;;;;;;5039847;28;20048;-75
2021/12/12 13:24:00;;;;;;;1.02;0.93;;;15.00;63.40;;;;;;5037797;28;20049;-75
2021/12/12 13:26:52;;;;;;;1.77;1.10;;;14.50;62.80;;;;;;5037984;28;20057;-74
2021/12/12 13:29:32;;;;;;;1.27;1.00;;;14.90;63.30;;;;;;5039558;28;20092;-74
2021/12/12 13:32:02;;;;;;;2.05;1.17;;;15.00;63.30;;;;;;5036326;28;20112;-74
2021/12/12 13:34:33;;;;;;;2.83;1.10;;;14.90;63.20;;;;;;5039875;28;20045;-75
2021/12/12 13:37:14;;;;;;;1.45;1.10;;;14.00;62.80;;;;;;5043962;28;20086;-74
2021/12/12 13:39:48;;;;;;;1.55;0.90;;;14.80;61.20;;;;;;5037467;28;20584;-74
2021/12/12 13:42:22;;;;;;;1.17;1.08;;;14.90;56.00;;;;;;5041708;28;20516;-74
2021/12/12 13:44:58;;;;;;;2.00;1.00;;;14.90;60.50;;;;;;5032426;28;20042;-74